Canada de Gomez, Argentina
Current Conditions -  °F | °C
As of 1:00 AM on Monday 20 Oct 2014 (Local Time) from SAAR Reporting Station
Clear Clear  
Wind Chill: 57°   Ceiling: Unl
Heat Index: 57°   Visibility: 6mi
Dew Point: 52°   Wind: 2mph
Humidity: 82%   Direction: 230°SW
Pressure: 30.09"   Gusts: NA
Location:  32.82°S, 61.4°W
Report Text: SAAR 200400Z 23002KT CAVOK 14/11 Q1019
Loading
Personal Weather Stations






























Interactive Weather Map
Tropical Storm Tracking
New forecast layout! Learn more

10-Day Weather Forecast

Advertisements
Track Severe Weather on mobile